Nearby METAR Reports

 

KHVN - New Haven/Tweed, Connecticut, USA
Distance from station: S 9mi, 14km
Updated: 06/19/2018 6:53pm
Few Clouds
Few Clouds
 Wind from NNW
Wind: NNW 14 mph , 22 km/h
Temperature: 82°F , 28°C
Dew Point: 54°F , 12°C
Humidity: 37%
Barometer: 29.80 inHg , 1009.1 hPa
Clouds: Few Clouds
Visibility: 10 miles , 16 km
Cloud details: Few Clouds 8000 ft
2018/06/19 22:53 KHVN 192253Z 34012KT 10SM FEW080 28/12 A2980 RMK AO2 SLP090 T02830122
KMMK - Meriden, Connecticut, USA
Distance from station: N 9mi, 14km
Updated: 06/19/2018 6:53pm
Clear
Clear
 Wind from NNW
Wind: NNW 10 mph , 17 km/h
Temperature: 82°F , 28°C
Dew Point: 48°F , 9°C
Humidity: 30%
Barometer: 29.80 inHg , 1009.1 hPa
Clouds: Clear
Visibility: 10 miles , 16 km
2018/06/19 22:53 KMMK 192253Z AUTO 34009KT 10SM CLR 28/09 A2980 RMK AO2 SLP089 T02830094
 
KOXC - Oxford/Waterbury, Connecticut, USA
Distance from station: WNW 15mi, 24km
Updated: 06/19/2018 6:51pm
Clear
Clear
 Wind from NW
Wind: NW 7 mph , 11 km/h
Temperature: 79°F , 26°C
Dew Point: 55°F , 13°C
Humidity: 45%
Barometer: 29.85 inHg , 1010.8 hPa
Clouds: Clear
Visibility: 10 miles , 16 km
2018/06/19 22:51 KOXC 192251Z 31006KT 10SM CLR 26/13 A2985 RMK AO2 SLP112 T02560128
KSNC - Chester, Connecticut, USA
Distance from station: E 19mi, 30km
Updated: 06/19/2018 7:15pm
Clear
Clear
 Wind from NNW
Wind: NNW 9 mph , 15 km/h
Temperature: 82°F , 28°C
Dew Point: 50°F , 10°C
Humidity: 32%
Barometer: 29.82 inHg , 1009.8 hPa
Clouds: Clear
Visibility: 10 miles , 16 km
2018/06/19 23:15 KSNC 192315Z AUTO 34008KT 10SM CLR 28/10 A2982 RMK AO2
 
KBDR - Bridgeport, Connecticut, USA
Distance from station: SW 21mi, 34km
Updated: 06/19/2018 6:52pm
Clear
Clear
 Wind from NW
Wind: NW 8 mph , 13 km/h
Temperature: 82°F , 28°C
Dew Point: 54°F , 12°C
Humidity: 37%
Barometer: 29.80 inHg , 1009.1 hPa
Clouds: Clear
Visibility: 10 miles , 16 km
2018/06/19 22:52 KBDR 192252Z 32007KT 10SM CLR 28/12 A2980 RMK AO2 SLP091 T02830117
KHFD - Hartford/Brainard, Connecticut, USA
Distance from station: NNE 26mi, 42km
Updated: 06/19/2018 6:53pm
Clear
Clear
 Wind from N
Wind: N 9 mph , 15 km/h
Temperature: 82°F , 28°C
Dew Point: 52°F , 11°C
Humidity: 35%
Barometer: 29.80 inHg , 1009.1 hPa
Clouds: Clear
Visibility: 10 miles , 16 km
2018/06/19 22:53 KHFD 192253Z 35008KT 10SM CLR 28/11 A2980 RMK AO2 SLP092 T02780106
 
KDXR - Danbury, Connecticut, USA
Distance from station: W 32mi, 52km
Updated: 06/19/2018 6:53pm
Clear
Clear
 Wind from N
Wind: N 13 mph , 20 km/h
Temperature: 81°F , 27°C
Dew Point: 54°F , 12°C
Humidity: 39%
Barometer: 29.84 inHg , 1010.5 hPa
Clouds: Clear
Visibility: 10 miles , 16 km
2018/06/19 22:53 KDXR 192253Z 01011KT 10SM CLR 27/12 A2984
KBDL - Windsor Locks, Connecticut, USA
Distance from station: NNE 39mi, 62km
Updated: 06/19/2018 6:51pm
Few Clouds
Few Clouds
 Wind from NNW
Wind: NNW 12 mph , 19 km/h
Temperature: 81°F , 27°C
Dew Point: 52°F , 11°C
Humidity: 37%
Barometer: 29.82 inHg , 1009.8 hPa
Clouds: Few Clouds
Visibility: 10 miles , 16 km
Cloud details: Few Clouds 7500 ft
Few Clouds 17000 ft
Few Clouds 25000 ft
2018/06/19 22:51 KBDL 192251Z 33010KT 10SM FEW075 FEW170 FEW250 27/11 A2982 RMK AO2 SLP096 T02670106